• Join FlightAware (Why Join?)
  • Login
  • US Flag 
05:15PM EDT


 

Airport Tracker/Info


-or-


 

Live Flight TrackerFlight Track Log ✈ UAL5999 ✈ 24-Jul-2013 ✈ KTUL - KORD

Flight Track Log - Related Links

Times and Time Zones

All times are in EDT time to prevent confusion due to time zone crossing. See the UAL5999 flight status page for this flight to view local times or setup timezone preferences in your user account.

Time Position Orientation Groundspeed Altitude Reporting Facility
EDT Latitude Longitude Course Direction KTS MPH feet Rate Location/Type
03:40PM 36.2581 -95.8631 20° North 189 217 3,100  Level Kansas City Center
03:41PM 36.2861 -95.7969 62° Northeast 229 264 5,000 1,920 Climbing Kansas City Center
03:42PM 36.3036 -95.7583 61° Northeast 235 270 6,000 2,100 Climbing Kansas City Center
03:43PM 36.3238 -95.4924 61° Northeast  Level FlightAware Approximate
03:43PM 36.3383 -95.6742 63° Northeast 265 305 8,300  Level Kansas City Center
03:44PM 36.3684 -95.3966 58° Northeast  Level FlightAware Approximate
03:44PM 36.3750 -95.5853 63° Northeast 284 327 10,000  Level Kansas City Center
03:45PM 36.4154 -95.3026 58° Northeast  Level FlightAware Approximate
03:45PM 36.4183 -95.4822 62° Northeast 324 373 11,400  Level Kansas City Center
03:46PM 36.4653 -95.3664 63° Northeast 342 394 13,300 1,800 Climbing Kansas City Center
03:47PM 36.5125 -95.2500 63° Northeast 354 407 15,200 1,740 Climbing Kansas City Center
03:48PM 36.5569 -95.1403 63° Northeast 357 411 17,000 1,560 Climbing Kansas City Center
03:49PM 36.5997 -95.0336 63° Northeast 358 412 18,500 1,620 Climbing Kansas City Center
03:50PM 36.6533 -94.9019 63° Northeast 356 410 20,400 1,440 Climbing Kansas City Center
03:51PM 36.6978 -94.7922 63° Northeast 355 409 21,600 1,140 Climbing Kansas City Center
03:52PM 36.7439 -94.6772 63° Northeast 365 420 22,800 1,080 Climbing Kansas City Center
03:53PM 36.7911 -94.5608 63° Northeast 373 429 23,900 1,020 Climbing Kansas City Center
03:54PM 36.8400 -94.4428 63° Northeast 380 437 25,000 1,020 Climbing Kansas City Center
03:55PM 36.9189 -94.3581 41° Northeast 375 432 26,100 960 Climbing Kansas City Center
03:56PM 36.9997 -94.2772 39° Northeast 373 429 27,100 1,080 Climbing Kansas City Center
03:57PM 37.1014 -94.1786 38° Northeast 383 441 28,400 1,080 Climbing Kansas City Center
03:58PM 37.1825 -94.0969 39° Northeast 386 444 29,400 960 Climbing Kansas City Center
03:59PM 37.2708 -94.0122 37° Northeast 394 453 30,400 960 Climbing Kansas City Center
04:00PM 37.3583 -93.9264 38° Northeast 397 457 31,400 960 Climbing Kansas City Center
04:01PM 37.4461 -93.8372 39° Northeast 401 461 32,400 1,020 Climbing Kansas City Center
04:02PM 37.5544 -93.7308 38° Northeast 408 470 33,600 1,020 Climbing Kansas City Center
04:03PM 37.6433 -93.6422 38° Northeast 408 470 34,600 660 Climbing Kansas City Center
04:04PM 37.7336 -93.5525 38° Northeast 409 471 35,000 180 Climbing Kansas City Center
04:05PM 37.8281 -93.4572 39° Northeast 423 487 35,000  Level Kansas City Center
04:06PM 37.9272 -93.3567 39° Northeast 443 510 35,000  Level Kansas City Center
04:07PM 38.0289 -93.2533 39° Northeast 457 526 35,000  Level Kansas City Center
04:09PM 38.1303 -93.1506 39° Northeast 462 532 35,000  Level Kansas City Center
04:10PM 38.2536 -93.0253 39° Northeast 466 536 35,000  Level Kansas City Center
04:11PM 38.3564 -92.9203 39° Northeast 468 539 35,000  Level Kansas City Center
04:12PM 38.4567 -92.8153 39° Northeast 463 533 35,000  Level Kansas City Center
04:13PM 38.5572 -92.7117 39° Northeast 461 531 35,000  Level Kansas City Center
04:14PM 38.6569 -92.6092 39° Northeast 458 527 35,000  Level Kansas City Center
04:15PM 38.7567 -92.5044 39° Northeast 459 528 35,000  Level Kansas City Center
04:16PM 38.8578 -92.3992 39° Northeast 463 533 35,000  Level Kansas City Center
04:17PM 38.9561 -92.2939 40° Northeast 459 528 35,000  Level Kansas City Center
04:18PM 39.0761 -92.1714 38° Northeast 457 526 35,000  Level Kansas City Center
04:19PM 39.1614 -92.0464 49° Northeast 472 543 35,000  Level Kansas City Center
04:20PM 39.2483 -91.9261 47° Northeast 457 526 35,000  Level Kansas City Center
04:21PM 39.3319 -91.8406 38° Northeast 448 516 35,000  Level Kansas City Center
04:22PM 39.4158 -91.6828 55° Northeast 450 518 35,000 -300 Level Kansas City Center
04:23PM 39.4819 -91.5511 57° Northeast 457 526 34,400 -780 Descending Kansas City Center
04:24PM 39.5539 -91.4011 58° Northeast 468 539 33,400 -720 Descending Kansas City Center
04:25PM 39.6222 -91.2606 58° Northeast 472 543 33,000 -240 Descending Kansas City Center
04:26PM 39.7069 -91.0883 57° Northeast 472 543 33,000  Level Kansas City Center
04:27PM 39.7986 -90.9892 40° Northeast 441 507 33,000  Level Kansas City Center
04:28PM 39.8894 -90.9000 37° Northeast 428 493 33,000  Level Kansas City Center
04:29PM 39.9839 -90.8036 38° Northeast 430 495 33,000  Level Kansas City Center
04:30PM 40.0789 -90.7075 38° Northeast 431 496 33,000  Level Kansas City Center
04:31PM 40.1967 -90.5892 37° Northeast 439 505 33,000  Level Kansas City Center
04:32PM 40.2944 -90.4883 38° Northeast 444 511 33,000  Level Kansas City Center
04:33PM 40.3906 -90.3897 38° Northeast 441 507 33,000  Level Kansas City Center
04:34PM 40.4867 -90.2914 38° Northeast 438 504 33,000 -60 Level Kansas City Center
04:35PM 40.5789 -90.1956 38° Northeast 441 507 32,900 -780 Descending Kansas City Center
04:36PM 40.6981 -90.0736 38° Northeast 452 520 31,400 -1,800 Descending Kansas City Center
04:37PM 40.7989 -89.9706 38° Northeast 460 529 29,300 -2,160 Descending Kansas City Center
04:39PM 40.9439 -89.8167 39° Northeast 461 531 26,100 -2,040 Descending Chicago Center
04:40PM 41.0475 -89.6975 41° Northeast 454 522 24,200 -1,260 Descending Chicago Center
04:41PM 41.1172 -89.5603 56° Northeast 445 512 23,500 -840 Descending Chicago Center
04:42PM 41.1833 -89.4200 58° Northeast 447 514 22,500 -1,320 Descending Chicago Center
04:43PM 41.2483 -89.2806 58° Northeast 445 512 20,800 -1,260 Descending Chicago Center
04:44PM 41.3164 -89.1331 58° Northeast 437 503 19,900 -1,320 Descending Chicago Center
04:45PM 41.3783 -88.9997 58° Northeast 426 490 18,100 -2,280 Descending Chicago Center
04:46PM 41.4375 -88.8719 58° Northeast 410 472 15,300 -2,640 Descending Chicago Center
04:47PM 41.4947 -88.7453 59° Northeast 401 461 12,700 -1,620 Descending Chicago Center
04:48PM 41.5089 -88.5925 83° East 351 404 12,000 -600 Descending Chicago Center
04:49PM 41.5350 -88.4883 71° East 312 359 11,500 -540 Descending Chicago Center
04:50PM 41.5725 -88.3953 62° Northeast 304 350 11,000 -540 Descending Chicago Center
04:51PM 41.5908 -88.3056 75° East 258 297 10,400 -900 Descending Chicago Center
04:52PM 41.6172 -88.2381 62° Northeast 239 275 9,200 -1,200 Descending Chicago Center
04:53PM 41.6883 -88.2036 20° North 230 265 8,000 -1,080 Descending Chicago Center
04:54PM 41.7325 -88.1583 37° Northeast 208 239 7,000 -1,020 Descending Chicago Center
04:56PM 41.7725 -88.1106 42° Northeast 196 226 5,900 -1,080 Descending Chicago Center
04:57PM 41.8092 -88.0703 39° Northeast 184 212 4,800 -1,020 Descending Chicago Center
04:58PM 41.8447 -88.0278 42° Northeast 176 203 3,900 -900 Descending Chicago Center